Time;durP1;ratioP1;P1;durP2;ratioP2;P2;SDS_P1;SDS_P2;PMS_P1;PMS_P2;Temp;Humidity;BMP_temperature;BMP_pressure;BME280_temperature;BME280_humidity;BME280_pressure;Samples;Min_cycle;Max_cycle;Signal;HPM_P1;HPM_P2
2024/04/01 00:01:02;;;;;;;0.73;0.40;;;;;;;13.62;64.45;95129.41;4988793;28;20572;-79
2024/04/01 00:03:28;;;;;;;1.33;0.22;;;;;;;13.62;64.12;95118.16;5012564;28;20124;-80
2024/04/01 00:05:54;;;;;;;0.65;0.20;;;;;;;13.56;64.87;95094.03;5004383;28;20741;-79
2024/04/01 00:08:21;;;;;;;1.10;0.30;;;;;;;13.43;64.75;95069.63;5004016;28;20044;-80
2024/04/01 00:10:49;;;;;;;1.55;0.47;;;;;;;13.43;64.56;95067.00;4998699;28;20188;-80
2024/04/01 00:13:24;;;;;;;0.50;0.22;;;;;;;13.63;63.83;95078.63;5011403;28;20086;-80
2024/04/01 00:15:49;;;;;;;1.20;0.32;;;;;;;13.53;64.25;95078.97;5016648;28;20159;-88
2024/04/01 00:18:15;;;;;;;0.65;0.38;;;;;;;13.58;64.18;95086.63;5015706;28;20083;-79
2024/04/01 00:20:40;;;;;;;1.15;0.32;;;;;;;13.74;64.67;95089.47;5026078;28;20029;-79
2024/04/01 00:23:06;;;;;;;2.22;0.50;;;;;;;13.66;63.04;95080.63;5015143;28;20061;-87
2024/04/01 00:25:32;;;;;;;1.23;0.50;;;;;;;13.59;64.44;95077.72;4998892;28;20060;-88
2024/04/01 00:27:58;;;;;;;1.00;0.57;;;;;;;13.61;64.74;95088.63;5000311;28;20081;-87
2024/04/01 00:30:24;;;;;;;2.05;0.65;;;;;;;13.51;63.99;95081.16;4997008;28;20029;-88
2024/04/01 00:32:52;;;;;;;0.75;0.40;;;;;;;13.51;64.25;95083.75;5028161;28;20056;-89
2024/04/01 00:35:18;;;;;;;1.05;0.38;;;;;;;13.52;64.72;95084.50;4997697;28;20083;-87
2024/04/01 00:37:43;;;;;;;0.32;0.20;;;;;;;13.57;64.66;95090.34;4988728;28;20061;-88
2024/04/01 00:40:09;;;;;;;1.27;0.82;;;;;;;13.53;64.47;95080.84;5026378;28;20048;-89
2024/04/01 00:42:35;;;;;;;1.08;0.30;;;;;;;13.57;65.12;95069.44;5016421;28;20198;-89
2024/04/01 00:45:01;;;;;;;0.28;0.28;;;;;;;13.59;64.44;95066.47;5035819;28;20048;-84
2024/04/01 00:47:26;;;;;;;0.82;0.30;;;;;;;13.55;64.97;95053.28;5011850;28;20547;-89
2024/04/01 00:49:53;;;;;;;1.50;0.40;;;;;;;13.47;64.51;95039.19;5017776;28;20037;-80
2024/04/01 00:52:19;;;;;;;0.60;0.60;;;;;;;13.50;65.02;95037.75;4998582;28;20037;-80
2024/04/01 00:54:45;;;;;;;0.43;0.40;;;;;;;13.51;65.14;95036.69;5004939;28;20040;-80
2024/04/01 00:57:12;;;;;;;1.40;0.22;;;;;;;13.47;64.81;95026.09;5011810;28;20056;-80
2024/04/01 00:59:38;;;;;;;1.05;0.30;;;;;;;13.50;65.33;95027.31;5012388;28;20051;-80
2024/04/01 01:02:03;;;;;;;0.68;0.25;;;;;;;13.51;64.81;95033.31;5027691;28;20107;-81
2024/04/01 01:04:29;;;;;;;0.98;0.45;;;;;;;13.52;65.19;95021.78;4997889;28;20123;-88
2024/04/01 01:06:55;;;;;;;0.30;0.20;;;;;;;13.56;64.97;95017.47;4994548;28;20084;-81
2024/04/01 01:09:20;;;;;;;0.30;0.20;;;;;;;13.46;65.42;95006.25;5007980;28;20163;-81
2024/04/01 01:11:45;;;;;;;0.40;0.30;;;;;;;13.47;64.94;95007.81;5003835;28;20036;-81
2024/04/01 01:14:11;;;;;;;1.00;0.20;;;;;;;13.51;65.32;95005.31;5011209;28;20104;-87
2024/04/01 01:16:37;;;;;;;0.70;0.50;;;;;;;13.61;64.81;95009.44;5014357;28;20029;-88
2024/04/01 01:19:03;;;;;;;0.65;0.35;;;;;;;13.63;64.30;95005.41;5022189;28;20025;-87
2024/04/01 01:21:29;;;;;;;0.75;0.40;;;;;;;13.63;64.58;95018.47;5013961;28;20036;-81
2024/04/01 01:23:54;;;;;;;0.50;0.28;;;;;;;13.60;64.56;95021.72;5031590;28;20125;-81
2024/04/01 01:26:20;;;;;;;2.40;0.30;;;;;;;13.56;64.31;95015.59;5047908;28;20040;-81
2024/04/01 01:28:47;;;;;;;1.02;0.30;;;;;;;13.61;64.17;95028.50;5007590;28;20091;-81
2024/04/01 01:31:12;;;;;;;0.55;0.30;;;;;;;13.64;63.96;95025.25;5030910;28;20029;-81
2024/04/01 01:33:38;;;;;;;0.98;0.22;;;;;;;13.48;64.57;95004.09;5009822;28;20171;-81
2024/04/01 01:36:03;;;;;;;0.43;0.25;;;;;;;13.50;64.04;95003.78;5045619;28;20029;-80
2024/04/01 01:38:29;;;;;;;0.90;0.30;;;;;;;13.46;65.24;94995.06;5010791;28;20025;-80
2024/04/01 01:40:54;;;;;;;0.38;0.32;;;;;;;13.48;65.22;95003.34;4994760;28;20029;-81
2024/04/01 01:43:19;;;;;;;0.85;0.30;;;;;;;13.58;64.22;95013.44;5031157;28;20029;-80
2024/04/01 01:45:45;;;;;;;0.90;0.30;;;;;;;13.47;63.84;94994.72;5007866;28;20470;-85
2024/04/01 01:48:11;;;;;;;1.13;0.30;;;;;;;13.44;65.35;94981.53;4996965;28;20032;-86
2024/04/01 01:50:38;;;;;;;0.57;0.30;;;;;;;13.50;64.99;94980.25;4998212;28;20056;-86
2024/04/01 01:53:04;;;;;;;1.83;0.40;;;;;;;13.36;65.73;94962.19;5030386;28;20021;-85
2024/04/01 01:55:29;;;;;;;0.88;0.30;;;;;;;13.38;65.16;94941.72;5019666;28;20036;-87
2024/04/01 01:57:54;;;;;;;0.75;0.30;;;;;;;13.48;65.51;94956.28;5008581;28;20029;-86
2024/04/01 02:00:20;;;;;;;0.77;0.52;;;;;;;13.43;65.11;94951.25;4987671;28;21822;-87
2024/04/01 02:02:45;;;;;;;0.73;0.30;;;;;;;13.43;65.25;94946.00;5008761;28;20036;-86
2024/04/01 02:05:11;;;;;;;0.52;0.20;;;;;;;13.33;65.06;94930.69;5027350;28;20028;-86
2024/04/01 02:07:36;;;;;;;0.40;0.30;;;;;;;13.39;65.05;94932.06;5009263;28;20029;-86
2024/04/01 02:10:03;;;;;;;1.85;0.40;;;;;;;13.46;64.74;94921.84;5009526;28;20037;-86
2024/04/01 02:12:28;;;;;;;0.85;0.20;;;;;;;13.48;65.16;94911.84;5019239;28;20031;-87
2024/04/01 02:14:54;;;;;;;0.88;0.20;;;;;;;13.42;64.66;94897.44;5030926;28;20029;-81
2024/04/01 02:17:19;;;;;;;0.52;0.20;;;;;;;13.38;65.08;94894.69;5029175;28;20417;-81
2024/04/01 02:19:45;;;;;;;1.08;0.32;;;;;;;13.29;65.17;94899.94;5012344;28;20074;-81
2024/04/01 02:22:14;;;;;;;1.45;0.30;;;;;;;13.31;65.37;94902.22;5010719;28;20044;-80
2024/04/01 02:24:43;;;;;;;0.80;0.40;;;;;;;13.36;65.34;94893.47;5010780;28;20038;-80
2024/04/01 02:27:09;;;;;;;0.70;0.40;;;;;;;13.29;65.75;94893.94;5011033;28;20041;-81
2024/04/01 02:29:38;;;;;;;0.68;0.30;;;;;;;13.28;65.55;94887.19;4990957;28;20033;-80
2024/04/01 02:32:04;;;;;;;0.50;0.30;;;;;;;13.36;65.95;94896.84;4983736;28;20124;-80
2024/04/01 02:34:29;;;;;;;1.02;0.30;;;;;;;13.28;66.29;94882.75;5013501;28;20128;-80
2024/04/01 02:36:54;;;;;;;0.68;0.30;;;;;;;13.28;65.99;94880.13;5014339;28;20029;-81
2024/04/01 02:39:23;;;;;;;1.17;0.80;;;;;;;13.45;65.46;94899.41;4994140;28;20037;-81
2024/04/01 02:41:50;;;;;;;2.38;0.40;;;;;;;13.42;65.69;94915.75;5012064;28;20039;-80
2024/04/01 02:44:16;;;;;;;0.40;0.30;;;;;;;13.40;65.63;94915.28;5029883;28;20508;-80
2024/04/01 02:46:42;;;;;;;1.33;0.35;;;;;;;13.37;65.31;94906.22;5012319;28;20116;-80
2024/04/01 02:49:11;;;;;;;0.65;0.30;;;;;;;13.34;65.56;94908.72;5027263;28;20095;-80
2024/04/01 02:51:39;;;;;;;0.93;0.70;;;;;;;13.37;65.12;94900.25;5011412;28;20707;-80
2024/04/01 02:54:05;;;;;;;1.05;0.40;;;;;;;13.41;65.06;94896.66;5012817;28;20071;-80
2024/04/01 02:56:31;;;;;;;2.15;0.30;;;;;;;13.30;64.85;94883.19;5000836;28;20025;-81
2024/04/01 02:59:03;;;;;;;1.15;0.20;;;;;;;13.37;65.94;94874.09;5008055;28;20059;-80
2024/04/01 03:01:29;;;;;;;0.40;0.30;;;;;;;13.45;65.60;94881.09;4991450;28;20072;-80
2024/04/01 03:04:01;;;;;;;1.65;0.35;;;;;;;13.52;64.59;94875.38;5022284;28;20092;-80
2024/04/01 03:06:30;;;;;;;0.55;0.40;;;;;;;13.41;65.60;94875.75;4996764;28;20025;-80
2024/04/01 03:08:56;;;;;;;1.13;0.80;;;;;;;13.29;65.40;94879.03;4994578;28;20041;-81
2024/04/01 03:11:21;;;;;;;0.50;0.50;;;;;;;13.24;65.35;94873.22;5016237;28;20454;-80
2024/04/01 03:13:48;;;;;;;0.93;0.57;;;;;;;13.26;65.91;94882.28;4999869;28;20037;-80
2024/04/01 03:16:15;;;;;;;0.73;0.73;;;;;;;13.29;65.46;94886.88;4999977;28;20110;-80
2024/04/01 03:18:40;;;;;;;1.25;0.47;;;;;;;13.33;66.76;94894.09;4994757;28;20517;-80
2024/04/01 03:21:07;;;;;;;0.80;0.55;;;;;;;13.33;66.16;94892.25;5006956;28;20116;-80
2024/04/01 03:23:33;;;;;;;0.90;0.60;;;;;;;13.30;65.75;94898.09;5013953;28;20044;-80
2024/04/01 03:25:58;;;;;;;0.80;0.60;;;;;;;13.30;65.58;94904.09;5016555;28;20029;-80
2024/04/01 03:28:23;;;;;;;1.77;0.60;;;;;;;13.41;65.10;94911.59;5015880;28;20124;-84
2024/04/01 03:30:49;;;;;;;0.85;0.40;;;;;;;13.38;65.38;94917.44;4997093;28;20033;-83
2024/04/01 03:33:15;;;;;;;0.50;0.50;;;;;;;13.33;65.42;94918.38;5025847;28;20033;-83
2024/04/01 03:35:41;;;;;;;0.50;0.50;;;;;;;13.32;65.05;94923.94;5011630;28;20032;-85
2024/04/01 03:38:08;;;;;;;0.85;0.40;;;;;;;13.30;65.75;94916.41;5012822;28;20425;-84
2024/04/01 03:40:38;;;;;;;1.58;0.40;;;;;;;13.55;64.52;94946.09;5016140;28;20033;-84
2024/04/01 03:43:07;;;;;;;0.93;0.50;;;;;;;13.55;65.92;94972.22;4994387;28;20125;-85
2024/04/01 03:45:33;;;;;;;1.48;0.50;;;;;;;13.46;64.66;94972.28;5016272;28;20551;-83
2024/04/01 03:47:59;;;;;;;0.82;0.40;;;;;;;13.33;65.49;94964.66;5030041;28;20132;-84
2024/04/01 03:50:24;;;;;;;0.50;0.40;;;;;;;13.39;65.61;94969.41;5029449;28;20029;-84
2024/04/01 03:52:51;;;;;;;0.40;0.40;;;;;;;13.36;65.68;94988.31;5030868;28;20041;-83
2024/04/01 03:55:16;;;;;;;0.30;0.30;;;;;;;13.28;66.27;94979.44;4992361;28;20039;-84
2024/04/01 03:57:42;;;;;;;0.50;0.40;;;;;;;13.32;65.92;94991.91;5015765;28;20033;-83
2024/04/01 04:00:11;;;;;;;0.88;0.45;;;;;;;13.30;65.89;94995.56;5017806;28;20148;-83
2024/04/01 04:02:36;;;;;;;0.75;0.40;;;;;;;13.25;65.73;94982.66;5016628;28;20036;-83
2024/04/01 04:05:01;;;;;;;0.50;0.30;;;;;;;13.18;66.56;94965.94;5015650;28;20037;-80
2024/04/01 04:07:27;;;;;;;2.30;0.40;;;;;;;13.35;65.70;94978.19;5020574;28;20041;-80
2024/04/01 04:09:52;;;;;;;2.33;0.63;;;;;;;13.35;66.20;94993.88;5028027;28;20040;-80
2024/04/01 04:12:17;;;;;;;1.33;0.30;;;;;;;13.27;66.42;94985.72;5049549;28;20044;-80
2024/04/01 04:14:43;;;;;;;0.88;0.40;;;;;;;12.81;68.22;94982.06;5049321;28;20044;-79
2024/04/01 04:17:08;;;;;;;0.30;0.20;;;;;;;12.50;69.73;94977.84;5027541;28;20032;-80
2024/04/01 04:19:34;;;;;;;0.30;0.20;;;;;;;12.41;69.12;94979.72;5030082;28;20040;-80
2024/04/01 04:21:59;;;;;;;1.08;0.25;;;;;;;12.38;69.86;94976.97;5011222;28;20033;-79
2024/04/01 04:24:25;;;;;;;3.80;0.40;;;;;;;12.33;70.09;94964.84;4995982;28;20033;-79
2024/04/01 04:26:51;;;;;;;0.30;0.30;;;;;;;12.93;67.18;94940.38;5019906;28;20124;-80
2024/04/01 04:29:17;;;;;;;0.95;0.30;;;;;;;13.16;66.51;94945.38;5025234;28;20033;-80
2024/04/01 04:31:54;;;;;;;0.30;0.30;;;;;;;13.28;65.49;94940.22;5031398;28;20037;-80
2024/04/01 04:34:20;;;;;;;0.65;0.30;;;;;;;13.18;66.03;94937.97;5041623;28;20673;-79
2024/04/01 04:36:45;;;;;;;0.77;0.20;;;;;;;13.20;65.85;94938.44;5031131;28;20032;-80
2024/04/01 04:39:19;;;;;;;0.28;0.20;;;;;;;13.21;65.70;94950.41;5047949;28;20503;-80
2024/04/01 04:41:46;;;;;;;0.95;0.30;;;;;;;13.28;65.49;94955.91;5044304;28;20488;-80
2024/04/01 04:44:12;;;;;;;0.63;0.20;;;;;;;13.22;66.61;94965.00;5013481;28;20025;-80
2024/04/01 04:46:37;;;;;;;1.05;0.30;;;;;;;13.20;66.12;94954.09;5030370;28;20036;-79
2024/04/01 04:49:03;;;;;;;0.90;0.40;;;;;;;13.30;65.04;94950.38;5028602;28;20068;-80
2024/04/01 04:51:28;;;;;;;0.60;0.30;;;;;;;13.35;66.24;94967.72;4995512;28;20034;-79
2024/04/01 04:53:54;;;;;;;1.25;0.50;;;;;;;13.35;65.47;94972.97;4999426;28;20483;-80
2024/04/01 04:56:19;;;;;;;0.88;0.60;;;;;;;13.29;65.89;94978.34;4998525;28;20040;-79
2024/04/01 04:58:44;;;;;;;0.93;0.50;;;;;;;13.25;65.30;94980.06;5022540;28;20038;-80
2024/04/01 05:01:12;;;;;;;0.40;0.40;;;;;;;13.36;65.26;95001.41;5030400;28;20086;-80
2024/04/01 05:03:38;;;;;;;0.90;0.40;;;;;;;13.37;65.14;94994.34;5041064;28;20052;-79
2024/04/01 05:06:03;;;;;;;0.30;0.30;;;;;;;13.40;65.24;95001.53;5014224;28;20033;-80
2024/04/01 05:08:29;;;;;;;0.65;0.47;;;;;;;13.33;65.06;95011.72;5031651;28;20481;-79
2024/04/01 05:10:55;;;;;;;0.50;0.30;;;;;;;13.36;65.10;95019.69;4997827;28;20123;-80
2024/04/01 05:13:23;;;;;;;0.52;0.40;;;;;;;13.34;65.03;95013.25;5027001;28;20075;-81
2024/04/01 05:15:48;;;;;;;0.50;0.40;;;;;;;13.38;65.47;95019.38;5024856;28;20325;-80
2024/04/01 05:18:14;;;;;;;0.77;0.30;;;;;;;13.34;65.14;95018.47;5010657;28;20040;-80
2024/04/01 05:20:39;;;;;;;0.85;0.50;;;;;;;13.28;65.65;95030.91;5026886;28;20033;-80
2024/04/01 05:23:05;;;;;;;0.40;0.22;;;;;;;13.28;65.40;95036.94;5025928;28;20032;-80
2024/04/01 05:25:30;;;;;;;0.82;0.30;;;;;;;13.24;66.06;95033.38;5030611;28;20056;-79
2024/04/01 05:27:56;;;;;;;0.52;0.30;;;;;;;13.24;65.44;95036.00;5030630;28;20065;-79
2024/04/01 05:30:23;;;;;;;0.15;0.15;;;;;;;13.16;65.99;95023.75;5029074;28;20116;-79
2024/04/01 05:32:49;;;;;;;0.50;0.20;;;;;;;13.30;65.89;95040.00;5030961;28;20404;-80
2024/04/01 05:35:16;;;;;;;1.20;0.20;;;;;;;13.20;65.95;95035.09;5038847;28;20044;-80
2024/04/01 05:37:43;;;;;;;0.28;0.20;;;;;;;13.27;65.39;95048.44;5014465;28;20064;-80
2024/04/01 05:40:08;;;;;;;0.28;0.20;;;;;;;13.18;65.87;95036.50;5029902;28;20447;-80
2024/04/01 05:42:33;;;;;;;0.28;0.20;;;;;;;13.18;65.71;95039.09;5029717;28;20041;-80
2024/04/01 05:44:59;;;;;;;0.20;0.20;;;;;;;13.21;65.48;95052.34;5014278;28;20037;-80
2024/04/01 05:47:24;;;;;;;0.75;0.20;;;;;;;13.17;65.31;95054.03;5010656;28;20038;-83
2024/04/01 05:49:50;;;;;;;0.15;0.15;;;;;;;13.15;65.51;95045.72;5026301;28;20354;-83
2024/04/01 05:52:15;;;;;;;0.32;0.20;;;;;;;13.16;65.51;95043.88;4997734;28;20029;-87
2024/04/01 05:54:40;;;;;;;0.30;0.17;;;;;;;13.14;65.53;95041.56;5008774;28;20044;-85
2024/04/01 05:57:06;;;;;;;1.08;0.20;;;;;;;13.14;65.17;95059.09;5008460;28;20021;-84
2024/04/01 05:59:31;;;;;;;0.20;0.20;;;;;;;13.19;65.35;95075.38;5030460;28;20158;-83
2024/04/01 06:01:57;;;;;;;0.15;0.10;;;;;;;13.10;64.94;95082.47;4992617;28;20064;-83
2024/04/01 06:04:24;;;;;;;1.00;0.10;;;;;;;12.92;65.30;95090.34;5036820;28;20480;-80
2024/04/01 06:06:50;;;;;;;0.10;0.10;;;;;;;12.84;64.54;95100.81;5029514;28;20037;-80
2024/04/01 06:09:15;;;;;;;0.45;0.10;;;;;;;12.89;64.07;95106.66;5010490;28;20029;-79
2024/04/01 06:11:41;;;;;;;0.10;0.10;;;;;;;12.85;62.82;95110.97;5006525;28;20032;-80
2024/04/01 06:14:07;;;;;;;0.10;0.10;;;;;;;12.80;63.88;95120.78;4994617;28;20128;-80
2024/04/01 06:16:36;;;;;;;0.20;0.10;;;;;;;12.72;63.24;95135.41;5013431;28;20033;-80
2024/04/01 06:19:02;;;;;;;0.15;0.10;;;;;;;12.65;63.69;95141.06;5012824;28;20044;-80
2024/04/01 06:21:28;;;;;;;1.17;0.17;;;;;;;12.59;63.33;95146.75;5009362;28;20524;-80
2024/04/01 06:23:53;;;;;;;0.10;0.10;;;;;;;12.56;64.70;95142.94;5010902;28;20045;-80
2024/04/01 06:26:19;;;;;;;0.10;0.10;;;;;;;12.55;63.59;95149.97;4996567;28;20032;-79
2024/04/01 06:28:44;;;;;;;0.10;0.10;;;;;;;12.52;63.24;95157.66;4985756;28;20026;-81
2024/04/01 06:31:10;;;;;;;0.10;0.10;;;;;;;12.50;63.48;95160.56;5009010;28;20028;-80
2024/04/01 06:33:36;;;;;;;0.40;0.10;;;;;;;12.47;63.00;95160.41;5013575;28;20033;-80
2024/04/01 06:36:05;;;;;;;0.10;0.10;;;;;;;12.54;63.25;95166.72;5029184;28;20511;-81
2024/04/01 06:38:31;;;;;;;0.17;0.10;;;;;;;12.44;64.61;95171.44;5006822;28;20064;-81
2024/04/01 06:40:57;;;;;;;0.52;0.10;;;;;;;12.42;63.64;95158.69;5044335;28;20082;-80
2024/04/01 06:43:23;;;;;;;0.20;0.20;;;;;;;12.43;63.50;95154.28;5025929;28;20025;-81
2024/04/01 06:45:55;;;;;;;1.15;0.20;;;;;;;12.43;63.97;95151.66;5028323;28;20121;-80
2024/04/01 06:48:21;;;;;;;0.10;0.10;;;;;;;12.27;63.26;95157.31;5015995;28;20095;-82
2024/04/01 06:50:47;;;;;;;0.15;0.10;;;;;;;12.11;64.20;95164.03;5018269;28;20480;-80
2024/04/01 06:53:13;;;;;;;1.75;0.10;;;;;;;12.19;63.91;95173.72;5012653;28;20091;-80
2024/04/01 06:55:39;;;;;;;0.20;0.20;;;;;;;12.25;63.78;95172.50;5015600;28;20037;-84
2024/04/01 06:58:06;;;;;;;0.08;0.08;;;;;;;12.22;63.59;95177.53;4999883;28;20025;-86
2024/04/01 07:00:32;;;;;;;0.13;0.13;;;;;;;12.14;63.72;95168.63;5032617;28;20048;-85
2024/04/01 07:02:57;;;;;;;0.10;0.10;;;;;;;12.18;64.49;95170.34;5015739;28;20056;-84
2024/04/01 07:05:22;;;;;;;0.10;0.10;;;;;;;12.17;64.47;95168.78;4993361;28;20419;-85
2024/04/01 07:07:48;;;;;;;0.88;0.20;;;;;;;12.29;64.12;95177.88;5014492;28;20036;-87
2024/04/01 07:10:13;;;;;;;0.20;0.20;;;;;;;12.26;64.15;95165.44;5019558;28;20034;-86
2024/04/01 07:12:39;;;;;;;0.10;0.10;;;;;;;12.17;64.84;95160.97;5029861;28;20048;-84
2024/04/01 07:15:08;;;;;;;0.70;0.20;;;;;;;12.09;64.97;95151.28;5025967;28;20037;-85
2024/04/01 07:17:37;;;;;;;0.10;0.10;;;;;;;12.27;64.55;95162.53;5016973;28;20054;-84
2024/04/01 07:20:03;;;;;;;0.55;0.10;;;;;;;12.29;64.73;95157.00;4988417;28;20109;-85
2024/04/01 07:22:28;;;;;;;0.10;0.10;;;;;;;12.36;64.78;95144.28;5045969;28;20107;-83
2024/04/01 07:24:53;;;;;;;0.10;0.10;;;;;;;12.44;64.97;95163.63;5000031;28;20529;-84
2024/04/01 07:27:19;;;;;;;0.17;0.10;;;;;;;12.42;64.53;95166.53;5015314;28;20044;-84
2024/04/01 07:29:44;;;;;;;0.80;0.20;;;;;;;12.50;65.38;95175.47;5016825;28;20157;-84
2024/04/01 07:32:09;;;;;;;0.43;0.10;;;;;;;12.40;64.21;95168.69;5016605;28;20029;-85
2024/04/01 07:34:35;;;;;;;0.10;0.10;;;;;;;12.49;64.91;95182.53;5029648;28;20029;-84
2024/04/01 07:37:00;;;;;;;0.15;0.15;;;;;;;12.54;64.61;95186.81;5010692;28;20528;-84
2024/04/01 07:39:27;;;;;;;0.50;0.10;;;;;;;12.48;64.72;95175.00;5011370;28;20481;-84
2024/04/01 07:41:53;;;;;;;0.20;0.10;;;;;;;12.59;64.86;95175.47;5033660;28;20080;-85
2024/04/01 07:44:19;;;;;;;0.13;0.10;;;;;;;12.54;65.13;95179.78;5039019;28;20102;-84
2024/04/01 07:46:44;;;;;;;0.30;0.20;;;;;;;12.54;64.91;95182.38;5024457;28;20029;-84
2024/04/01 07:49:11;;;;;;;0.10;0.10;;;;;;;12.62;64.51;95182.69;5029791;28;20056;-85
2024/04/01 07:51:37;;;;;;;0.10;0.10;;;;;;;12.65;65.25;95187.31;5028038;28;20068;-85
2024/04/01 07:54:02;;;;;;;0.77;0.55;;;;;;;12.67;64.62;95190.38;5003563;28;20080;-84
2024/04/01 07:56:28;;;;;;;1.30;0.22;;;;;;;12.68;64.95;95199.72;5015866;28;20029;-84
2024/04/01 07:58:54;;;;;;;0.40;0.40;;;;;;;12.68;64.78;95202.34;5032175;28;20036;-84
2024/04/01 08:01:19;;;;;;;0.32;0.20;;;;;;;12.72;64.73;95195.44;4999242;28;20071;-85
2024/04/01 08:03:45;;;;;;;0.52;0.40;;;;;;;12.77;64.90;95184.84;4996210;28;20416;-84
2024/04/01 08:06:11;;;;;;;1.60;0.30;;;;;;;12.80;64.59;95181.63;5023687;28;20059;-81
2024/04/01 08:08:37;;;;;;;0.60;0.30;;;;;;;12.74;63.86;95193.28;4991008;28;20489;-81
2024/04/01 08:11:02;;;;;;;0.82;0.40;;;;;;;12.76;64.66;95204.19;4998578;28;20121;-87
2024/04/01 08:13:28;;;;;;;0.95;0.35;;;;;;;12.78;65.34;95209.13;5001393;28;20033;-83
2024/04/01 08:16:03;;;;;;;0.30;0.30;;;;;;;12.86;64.33;95221.41;5017630;28;20030;-84
2024/04/01 08:18:29;;;;;;;0.73;0.30;;;;;;;12.77;65.08;95221.41;4987741;28;20456;-84
2024/04/01 08:20:56;;;;;;;0.45;0.30;;;;;;;12.81;65.10;95227.56;5000090;28;20024;-85
2024/04/01 08:23:25;;;;;;;0.30;0.30;;;;;;;12.85;65.19;95220.66;5026963;28;20037;-85
2024/04/01 08:25:50;;;;;;;0.93;0.20;;;;;;;12.95;64.43;95219.56;4999841;28;20033;-85
2024/04/01 08:28:17;;;;;;;0.30;0.20;;;;;;;13.08;65.59;95217.88;5046748;28;20033;-82
2024/04/01 08:30:42;;;;;;;0.30;0.20;;;;;;;13.16;65.65;95226.78;5031375;28;20035;-81
2024/04/01 08:33:07;;;;;;;0.40;0.30;;;;;;;13.09;64.89;95229.84;5028475;28;20116;-81
2024/04/01 08:35:33;;;;;;;0.30;0.30;;;;;;;13.05;65.11;95234.94;5021062;28;20025;-80
2024/04/01 08:37:58;;;;;;;0.40;0.40;;;;;;;12.89;64.97;95234.63;5022411;28;20111;-80
2024/04/01 08:40:24;;;;;;;0.17;0.13;;;;;;;13.01;64.45;95236.63;5010739;28;20386;-80
2024/04/01 08:42:53;;;;;;;0.20;0.20;;;;;;;13.11;63.79;95231.09;5014793;28;20094;-80
2024/04/01 08:45:18;;;;;;;0.50;0.10;;;;;;;13.00;64.87;95218.66;5012788;28;20039;-81
2024/04/01 08:47:50;;;;;;;0.30;0.20;;;;;;;13.09;63.88;95232.47;4996440;28;20037;-87
2024/04/01 08:50:21;;;;;;;0.10;0.10;;;;;;;13.10;64.58;95236.63;4997647;28;20048;-85
2024/04/01 08:52:58;;;;;;;0.20;0.20;;;;;;;13.29;64.61;95257.97;4998853;28;20120;-86
2024/04/01 08:55:25;;;;;;;0.10;0.10;;;;;;;13.15;64.73;95262.59;5018659;28;20021;-84
2024/04/01 08:57:50;;;;;;;0.45;0.13;;;;;;;13.22;64.47;95277.81;4997124;28;20044;-88
2024/04/01 09:00:18;;;;;;;1.38;0.20;;;;;;;13.36;63.71;95283.69;4996033;28;20045;-86
2024/04/01 09:02:44;;;;;;;0.20;0.20;;;;;;;13.04;64.00;95280.44;5011065;28;20046;-84
2024/04/01 09:05:09;;;;;;;0.20;0.10;;;;;;;13.05;64.25;95266.28;5010549;28;20035;-85
2024/04/01 09:07:35;;;;;;;0.90;0.10;;;;;;;13.21;62.97;95269.22;5015481;28;20334;-85
2024/04/01 09:10:01;;;;;;;0.20;0.13;;;;;;;13.22;64.05;95272.59;5012724;28;20521;-85
2024/04/01 09:12:27;;;;;;;0.10;0.10;;;;;;;13.30;64.48;95264.75;5025158;28;20045;-85
2024/04/01 09:14:52;;;;;;;0.20;0.13;;;;;;;13.40;63.24;95263.72;4999832;28;20029;-85
2024/04/01 09:17:27;;;;;;;0.20;0.20;;;;;;;13.55;61.90;95280.75;4998994;28;20374;-86
2024/04/01 09:20:00;;;;;;;1.88;0.20;;;;;;;13.02;61.93;95294.88;5016278;28;20037;-85
2024/04/01 09:22:25;;;;;;;0.68;0.10;;;;;;;13.10;62.34;95309.78;5009850;28;20036;-87
2024/04/01 09:24:50;;;;;;;0.10;0.10;;;;;;;13.09;62.11;95305.63;5014067;28;20044;-86
2024/04/01 09:27:16;;;;;;;0.20;0.20;;;;;;;12.92;63.04;95301.19;5011945;28;20031;-85
2024/04/01 09:29:41;;;;;;;0.20;0.20;;;;;;;12.83;62.15;95303.75;5031758;28;20132;-86
2024/04/01 09:32:07;;;;;;;0.32;0.20;;;;;;;12.95;63.01;95311.00;5027151;28;20050;-85
2024/04/01 09:34:32;;;;;;;0.20;0.17;;;;;;;13.06;62.96;95321.94;4998347;28;20024;-86
2024/04/01 09:36:58;;;;;;;0.20;0.20;;;;;;;13.12;62.87;95320.69;5030982;28;20048;-88
2024/04/01 09:39:23;;;;;;;0.20;0.20;;;;;;;13.19;62.85;95322.88;5012090;28;20029;-84
2024/04/01 09:41:50;;;;;;;2.38;0.30;;;;;;;13.21;62.79;95326.72;5015292;28;20541;-80
2024/04/01 09:44:15;;;;;;;0.40;0.30;;;;;;;13.16;63.08;95315.63;4996340;28;20108;-81
2024/04/01 09:46:41;;;;;;;0.38;0.38;;;;;;;13.15;63.51;95327.94;5020427;28;20128;-80
2024/04/01 09:49:06;;;;;;;0.38;0.22;;;;;;;13.16;62.98;95352.22;5004596;28;20411;-81
2024/04/01 09:51:33;;;;;;;0.47;0.40;;;;;;;12.98;63.14;95354.81;5011525;28;20033;-80
2024/04/01 09:53:58;;;;;;;0.98;0.40;;;;;;;13.05;63.58;95352.50;4992661;28;20033;-81
2024/04/01 09:56:43;;;;;;;0.93;0.50;;;;;;;13.24;63.34;95346.22;5029252;28;20031;-80
2024/04/01 09:59:23;;;;;;;0.52;0.50;;;;;;;13.33;63.05;95362.72;5030005;28;20522;-80
2024/04/01 10:02:13;;;;;;;0.55;0.30;;;;;;;13.19;62.52;95368.03;5047307;28;20048;-80
2024/04/01 10:05:15;;;;;;;0.50;0.30;;;;;;;13.28;62.73;95376.69;5008603;28;20508;-81
2024/04/01 10:08:02;;;;;;;0.30;0.30;;;;;;;13.02;63.08;95381.88;5029549;28;20106;-82
2024/04/01 10:10:47;;;;;;;0.77;0.30;;;;;;;13.06;63.59;95390.63;5040131;28;20083;-81
2024/04/01 10:13:37;;;;;;;0.25;0.25;;;;;;;13.07;62.93;95401.84;5011466;28;20021;-81
2024/04/01 10:16:25;;;;;;;0.40;0.30;;;;;;;13.09;64.31;95400.47;5028149;28;20033;-80
2024/04/01 10:19:23;;;;;;;0.38;0.38;;;;;;;13.07;63.07;95404.44;5014245;28;20546;-80
2024/04/01 10:21:54;;;;;;;0.32;0.30;;;;;;;13.06;63.57;95416.00;4961882;28;20062;-80
2024/04/01 10:24:33;;;;;;;0.55;0.43;;;;;;;13.06;63.40;95432.44;5026705;28;20067;-80
2024/04/01 10:27:31;;;;;;;0.28;0.20;;;;;;;13.06;63.62;95455.19;5034535;28;20029;-84
2024/04/01 10:30:25;;;;;;;0.50;0.30;;;;;;;13.14;62.64;95480.56;5018493;28;20044;-85
2024/04/01 10:33:28;;;;;;;0.28;0.25;;;;;;;13.08;63.00;95477.31;5040541;28;20125;-86
2024/04/01 10:36:21;;;;;;;0.40;0.30;;;;;;;13.08;62.25;95494.84;5015586;28;20028;-84
2024/04/01 10:39:12;;;;;;;0.20;0.20;;;;;;;13.00;62.03;95500.78;5034371;28;20029;-86
2024/04/01 10:41:57;;;;;;;0.55;0.30;;;;;;;12.92;63.53;95499.69;5032596;28;20091;-85
2024/04/01 10:44:28;;;;;;;1.27;0.30;;;;;;;12.90;63.26;95513.06;5015387;28;20501;-80
2024/04/01 10:47:15;;;;;;;0.30;0.30;;;;;;;12.89;63.48;95521.19;5032613;28;20039;-79
2024/04/01 10:50:19;;;;;;;0.50;0.30;;;;;;;12.66;63.21;95523.03;5050381;28;20040;-79
2024/04/01 10:52:55;;;;;;;0.68;0.30;;;;;;;12.58;64.26;95515.91;4967269;28;21187;-80
2024/04/01 10:55:23;;;;;;;0.75;0.20;;;;;;;12.78;63.45;95515.44;5011884;28;20374;-81
2024/04/01 10:57:58;;;;;;;0.30;0.20;;;;;;;12.88;64.43;95517.03;5040616;28;20094;-81
2024/04/01 11:00:41;;;;;;;0.60;0.50;;;;;;;13.16;63.60;95530.69;5030652;28;20088;-81
2024/04/01 11:03:22;;;;;;;1.63;0.60;;;;;;;12.93;64.33;95529.97;5049989;28;20564;-81
2024/04/01 11:06:05;;;;;;;0.60;0.50;;;;;;;12.93;63.13;95529.97;5033806;28;20364;-86
2024/04/01 11:08:57;;;;;;;0.70;0.50;;;;;;;13.22;63.82;95539.94;5050461;28;20132;-84
2024/04/01 11:11:44;;;;;;;0.40;0.40;;;;;;;13.04;64.29;95544.31;5021069;28;20086;-86
2024/04/01 11:14:10;;;;;;;1.08;0.55;;;;;;;13.05;63.53;95555.53;5049006;28;20051;-84
2024/04/01 11:16:37;;;;;;;0.90;0.77;;;;;;;13.09;64.30;95556.47;4997911;28;20469;-84
2024/04/01 11:19:03;;;;;;;1.10;0.73;;;;;;;13.17;65.50;95566.19;5013951;28;20086;-84
2024/04/01 11:21:37;;;;;;;0.88;0.75;;;;;;;13.05;63.65;95571.97;5032098;28;20316;-88
2024/04/01 11:24:24;;;;;;;1.73;0.55;;;;;;;12.72;64.41;95582.69;5030539;28;20029;-83
2024/04/01 11:27:09;;;;;;;0.50;0.45;;;;;;;12.83;64.05;95585.06;5016097;28;20090;-84
2024/04/01 11:29:43;;;;;;;0.80;0.50;;;;;;;12.93;64.20;95590.03;5015981;28;20029;-83
2024/04/01 11:32:10;;;;;;;0.65;0.60;;;;;;;12.85;64.58;95594.16;5030160;28;20037;-86
2024/04/01 11:34:39;;;;;;;0.70;0.50;;;;;;;13.01;62.85;95602.38;5012934;28;20063;-85
2024/04/01 11:37:04;;;;;;;0.93;0.40;;;;;;;12.78;63.08;95606.84;5031628;28;20045;-85
2024/04/01 11:39:31;;;;;;;0.60;0.40;;;;;;;12.72;63.07;95614.03;5032723;28;20551;-84